createdAt,value
2023-03-02T00:01:58.527Z,61.83
2023-03-02T00:04:34.632Z,60.17
2023-03-02T00:07:05.780Z,79.00
2023-03-02T00:09:32.808Z,83.90
2023-03-02T00:12:00.192Z,67.40
2023-03-02T00:14:27.144Z,60.27
2023-03-02T00:16:54.388Z,68.03
2023-03-02T00:19:21.659Z,69.07
2023-03-02T00:21:48.830Z,69.07
2023-03-02T00:24:15.950Z,70.47
2023-03-02T00:26:43.183Z,72.37
2023-03-02T00:29:10.079Z,60.23
2023-03-02T00:31:38.377Z,54.83
2023-03-02T00:34:05.313Z,56.47
2023-03-02T00:36:32.542Z,61.73
2023-03-02T00:38:59.566Z,60.27
2023-03-02T00:41:27.154Z,61.60
2023-03-02T00:43:54.079Z,66.70
2023-03-02T00:46:23.122Z,72.43
2023-03-02T00:51:18.269Z,61.90
2023-03-02T00:53:45.212Z,64.07
2023-03-02T00:56:13.364Z,66.63
2023-03-02T00:58:40.623Z,65.37
2023-03-02T01:01:10.603Z,59.20
2023-03-02T01:03:37.901Z,61.67
2023-03-02T01:06:05.989Z,61.03
2023-03-02T01:08:32.889Z,57.87
2023-03-02T01:11:01.594Z,70.67
2023-03-02T01:13:28.784Z,62.20
2023-03-02T01:16:03.066Z,60.67
2023-03-02T01:18:30.040Z,61.87
2023-03-02T01:21:05.401Z,58.60
2023-03-02T01:23:32.672Z,63.50
2023-03-02T01:25:59.972Z,65.23
2023-03-02T01:28:27.085Z,61.73
2023-03-02T01:30:54.543Z,61.37
2023-03-02T01:33:21.640Z,58.30
2023-03-02T01:35:49.406Z,63.40
2023-03-02T01:38:16.444Z,58.73
2023-03-02T01:40:43.843Z,58.17
2023-03-02T01:43:13.786Z,54.77
2023-03-02T01:45:53.954Z,57.67
2023-03-02T01:48:27.705Z,56.87
2023-03-02T01:50:55.267Z,63.77
2023-03-02T01:53:25.251Z,55.97
2023-03-02T01:55:53.090Z,56.20
2023-03-02T01:58:21.018Z,54.87
2023-03-02T02:00:49.111Z,50.10
2023-03-02T02:03:24.913Z,55.37
2023-03-02T02:06:18.155Z,54.20
2023-03-02T02:08:47.424Z,56.93
2023-03-02T02:11:15.024Z,54.03
2023-03-02T02:13:43.387Z,53.20
2023-03-02T02:16:10.857Z,56.30
2023-03-02T02:18:40.134Z,51.97
2023-03-02T02:21:08.455Z,63.93
2023-03-02T02:23:53.900Z,55.00
2023-03-02T02:26:37.245Z,62.43
2023-03-02T02:29:30.367Z,68.73
2023-03-02T02:32:03.012Z,69.70
2023-03-02T02:34:39.436Z,68.97
2023-03-02T02:37:24.087Z,57.80
2023-03-02T02:39:51.883Z,55.93
2023-03-02T02:42:32.763Z,53.55
2023-03-02T02:45:05.878Z,49.40
2023-03-02T02:47:34.150Z,57.13
2023-03-02T02:50:01.186Z,50.25
2023-03-02T02:52:29.721Z,55.77
2023-03-02T02:54:59.143Z,60.47
2023-03-02T02:57:29.567Z,54.63
2023-03-02T02:59:59.377Z,59.70
2023-03-02T03:02:30.682Z,62.63
2023-03-02T03:05:03.432Z,53.97
2023-03-02T03:07:32.340Z,60.73
2023-03-02T03:10:26.203Z,56.92
2023-03-02T03:12:53.608Z,58.57
2023-03-02T03:15:21.113Z,57.73
2023-03-02T03:17:55.343Z,63.77
2023-03-02T03:20:23.184Z,62.57
2023-03-02T03:22:53.500Z,63.00
2023-03-02T03:25:22.253Z,63.33
2023-03-02T03:27:49.420Z,58.47
2023-03-02T03:30:17.106Z,58.10
2023-03-02T03:32:44.728Z,59.40
2023-03-02T03:35:12.633Z,49.43
2023-03-02T03:37:41.431Z,53.45
2023-03-02T03:40:09.903Z,52.30
2023-03-02T03:42:38.441Z,52.13
2023-03-02T03:45:07.057Z,57.00
2023-03-02T03:50:01.215Z,58.33
2023-03-02T03:52:31.509Z,62.27
2023-03-02T03:55:00.211Z,66.70
2023-03-02T03:57:29.105Z,62.33
2023-03-02T03:59:56.475Z,66.15
2023-03-02T04:02:24.333Z,65.80
2023-03-02T04:04:51.331Z,65.60
2023-03-02T04:07:18.674Z,75.40
2023-03-02T04:09:45.562Z,69.43
2023-03-02T04:12:12.833Z,67.60
2023-03-02T04:14:39.826Z,67.37
2023-03-02T04:17:07.590Z,67.53
2023-03-02T04:19:35.664Z,59.50
2023-03-02T04:22:04.357Z,69.07
2023-03-02T04:24:31.858Z,64.25
2023-03-02T04:26:59.128Z,67.27
2023-03-02T04:29:26.389Z,64.47
2023-03-02T04:31:53.894Z,70.17
2023-03-02T04:34:20.996Z,68.57
2023-03-02T04:36:48.200Z,70.33
2023-03-02T04:39:16.747Z,66.87
2023-03-02T04:44:11.203Z,68.40
2023-03-02T04:46:39.193Z,70.27
2023-03-02T04:49:06.640Z,69.40
2023-03-02T04:51:39.953Z,64.53
2023-03-02T04:54:13.439Z,67.67
2023-03-02T04:56:40.710Z,73.73
2023-03-02T04:59:07.645Z,67.43
2023-03-02T05:01:34.945Z,73.00
2023-03-02T05:04:03.069Z,75.23
2023-03-02T05:06:30.760Z,84.35
2023-03-02T05:08:59.966Z,81.33
2023-03-02T05:11:27.297Z,94.53
2023-03-02T05:13:57.878Z,88.20
2023-03-02T05:16:29.444Z,78.17
2023-03-02T05:18:56.652Z,75.60
2023-03-02T05:21:24.421Z,71.73
2023-03-02T05:23:52.067Z,71.00
2023-03-02T05:26:19.400Z,71.10
2023-03-02T05:28:46.625Z,72.77
2023-03-02T05:31:19.592Z,78.77
2023-03-02T05:33:46.664Z,75.03
2023-03-02T05:36:13.903Z,71.57
2023-03-02T05:38:40.833Z,66.87
2023-03-02T05:41:08.041Z,72.93
2023-03-02T05:43:34.979Z,65.40
2023-03-02T05:46:02.574Z,72.83
2023-03-02T05:48:30.641Z,69.57
2023-03-02T05:50:58.318Z,65.05
2023-03-02T05:53:25.670Z,64.87
2023-03-02T05:55:53.463Z,57.20
2023-03-02T05:58:20.717Z,69.20
2023-03-02T06:00:48.898Z,70.20
2023-03-02T06:03:16.952Z,69.93
2023-03-02T06:05:44.207Z,67.15
2023-03-02T06:08:11.291Z,78.23
2023-03-02T06:10:38.695Z,72.23
2023-03-02T06:13:05.662Z,85.20
2023-03-02T06:15:32.940Z,80.07
2023-03-02T06:17:59.869Z,71.40
2023-03-02T06:20:27.129Z,78.03
2023-03-02T06:22:54.274Z,78.97
2023-03-02T06:25:23.953Z,70.07
2023-03-02T06:27:53.768Z,76.33
2023-03-02T06:30:23.952Z,73.43
2023-03-02T06:32:51.102Z,87.70
2023-03-02T06:35:18.703Z,76.87
2023-03-02T06:37:45.674Z,87.63
2023-03-02T06:40:14.096Z,86.20
2023-03-02T06:42:42.563Z,89.50
2023-03-02T06:45:11.189Z,78.68
2023-03-02T06:47:38.286Z,74.57
2023-03-02T06:50:06.241Z,79.23
2023-03-02T06:52:33.386Z,75.43
2023-03-02T06:55:00.885Z,73.10
2023-03-02T06:57:33.893Z,67.85
2023-03-02T07:00:06.907Z,71.93
2023-03-02T07:02:33.854Z,82.80
2023-03-02T07:05:01.113Z,74.63
2023-03-02T07:07:28.138Z,77.05
2023-03-02T07:09:55.323Z,68.75
2023-03-02T07:12:22.507Z,65.32
2023-03-02T07:14:49.650Z,59.30
2023-03-02T07:17:16.592Z,65.25
2023-03-02T07:19:43.750Z,59.28
2023-03-02T07:22:10.720Z,50.40
2023-03-02T07:24:37.941Z,49.22
2023-03-02T07:27:04.812Z,50.65
2023-03-02T07:29:31.987Z,52.53
2023-03-02T07:32:01.966Z,54.38
2023-03-02T07:34:30.624Z,56.15
2023-03-02T07:36:58.007Z,58.47
2023-03-02T07:39:25.221Z,64.25
2023-03-02T07:41:52.125Z,58.03
2023-03-02T07:44:19.313Z,61.95
2023-03-02T07:46:46.287Z,56.97
2023-03-02T07:49:13.484Z,55.97
2023-03-02T07:51:40.351Z,57.35
2023-03-02T07:54:07.582Z,58.85
2023-03-02T07:56:34.720Z,61.72
2023-03-02T07:59:01.918Z,61.50
2023-03-02T08:01:28.836Z,65.68
2023-03-02T08:03:56.081Z,68.80
2023-03-02T08:06:23.099Z,55.42
2023-03-02T08:08:50.315Z,54.08
2023-03-02T08:11:18.732Z,48.63
2023-03-02T08:13:46.663Z,45.17
2023-03-02T08:16:15.407Z,46.03
2023-03-02T08:21:15.157Z,53.25
2023-03-02T08:23:42.824Z,54.97
2023-03-02T08:26:12.596Z,50.17
2023-03-02T08:28:40.785Z,58.45
2023-03-02T08:31:09.180Z,59.35
2023-03-02T08:33:36.888Z,110.25
2023-03-02T08:36:11.465Z,112.88
2023-03-02T08:38:39.025Z,126.55
2023-03-02T08:41:09.017Z,187.95
2023-03-02T08:43:36.590Z,206.23
2023-03-02T08:46:04.187Z,177.18
2023-03-02T08:48:31.874Z,207.77
2023-03-02T08:51:09.540Z,122.65
2023-03-02T08:53:40.120Z,69.20
2023-03-02T08:56:17.015Z,59.45
2023-03-02T08:58:44.362Z,64.45
2023-03-02T09:01:23.846Z,65.70
2023-03-02T09:03:51.652Z,46.70
2023-03-02T09:06:19.134Z,49.60
2023-03-02T09:08:46.875Z,50.95
2023-03-02T09:11:14.227Z,45.28
2023-03-02T09:13:41.573Z,41.38
2023-03-02T09:16:09.975Z,44.78
2023-03-02T09:18:40.031Z,44.20
2023-03-02T09:21:23.611Z,40.35
2023-03-02T09:24:00.567Z,43.70
2023-03-02T09:26:29.664Z,40.00
2023-03-02T09:28:57.382Z,37.90
2023-03-02T09:31:24.677Z,39.50
2023-03-02T09:33:52.034Z,40.85
2023-03-02T09:36:22.199Z,38.53
2023-03-02T09:38:49.771Z,33.13
2023-03-02T09:41:19.865Z,34.15
2023-03-02T09:44:15.072Z,30.70
2023-03-02T09:46:46.639Z,34.95
2023-03-02T09:49:33.042Z,32.50
2023-03-02T09:52:08.846Z,31.83
2023-03-02T09:54:38.085Z,34.83
2023-03-02T09:57:20.976Z,30.60
2023-03-02T10:00:09.499Z,44.92
2023-03-02T10:03:17.412Z,22.13
2023-03-02T10:05:54.275Z,27.30
2023-03-02T10:08:29.580Z,30.95
2023-03-02T10:11:41.917Z,33.22
2023-03-02T10:14:15.526Z,35.28
2023-03-02T10:16:52.680Z,30.65
2023-03-02T10:19:27.676Z,31.42
2023-03-02T10:22:03.280Z,27.30
2023-03-02T10:24:39.108Z,27.08
2023-03-02T10:27:24.611Z,28.00
2023-03-02T10:29:58.827Z,26.33
2023-03-02T10:32:33.063Z,32.42
2023-03-02T10:35:10.984Z,26.77
2023-03-02T10:37:38.265Z,29.58
2023-03-02T10:40:05.525Z,30.10
2023-03-02T10:42:37.761Z,26.65
2023-03-02T10:45:25.152Z,25.45
2023-03-02T10:48:09.355Z,28.48
2023-03-02T10:50:37.268Z,29.02
2023-03-02T10:53:08.690Z,30.15
2023-03-02T10:55:35.601Z,23.67
2023-03-02T10:58:07.077Z,29.20
2023-03-02T11:00:34.988Z,25.70
2023-03-02T11:03:05.949Z,28.92
2023-03-02T11:05:38.618Z,27.38
2023-03-02T11:08:10.446Z,26.58
2023-03-02T11:10:40.721Z,24.98
2023-03-02T11:13:17.277Z,25.80
2023-03-02T11:15:50.959Z,24.10
2023-03-02T11:18:26.947Z,25.40
2023-03-02T11:21:00.030Z,26.17
2023-03-02T11:23:37.752Z,25.25
2023-03-02T11:26:30.767Z,23.25
2023-03-02T11:29:03.787Z,27.50
2023-03-02T11:31:44.250Z,22.13
2023-03-02T11:34:26.523Z,22.65
2023-03-02T11:37:20.749Z,23.02
2023-03-02T11:39:54.940Z,23.80
2023-03-02T11:42:35.284Z,26.65
2023-03-02T11:45:20.779Z,20.02
2023-03-02T11:48:06.435Z,20.63
2023-03-02T11:50:40.214Z,21.95
2023-03-02T11:53:14.446Z,22.40
2023-03-02T11:55:45.839Z,22.15
2023-03-02T11:58:21.031Z,25.58
2023-03-02T12:00:49.663Z,21.98
2023-03-02T12:03:16.491Z,22.42
2023-03-02T12:06:07.155Z,23.83
2023-03-02T12:08:44.882Z,23.80
2023-03-02T12:11:17.979Z,22.35
2023-03-02T12:13:57.861Z,23.83
2023-03-02T12:16:43.021Z,21.33
2023-03-02T12:19:27.362Z,23.63
2023-03-02T12:22:05.671Z,23.80
2023-03-02T12:24:34.997Z,21.67
2023-03-02T12:27:27.285Z,25.50
2023-03-02T12:30:16.294Z,24.98
2023-03-02T12:33:00.188Z,23.42
2023-03-02T12:35:30.433Z,21.88
2023-03-02T12:38:01.899Z,25.90
2023-03-02T12:40:40.769Z,22.27
2023-03-02T12:43:27.700Z,23.15
2023-03-02T12:46:19.441Z,21.20
2023-03-02T12:48:57.432Z,22.83
2023-03-02T12:51:27.277Z,20.95
2023-03-02T12:54:12.304Z,22.48
2023-03-02T12:56:39.646Z,27.40
2023-03-02T12:59:07.030Z,21.98
2023-03-02T13:01:34.852Z,21.77
2023-03-02T13:04:02.067Z,25.40
2023-03-02T13:06:32.683Z,23.40
2023-03-02T13:09:00.835Z,22.45
2023-03-02T13:11:32.747Z,23.05
2023-03-02T13:14:03.844Z,22.60
2023-03-02T13:16:34.404Z,20.67
2023-03-02T13:19:09.351Z,27.65
2023-03-02T13:21:39.348Z,20.50
2023-03-02T13:24:28.508Z,18.70
2023-03-02T13:26:59.540Z,22.35
2023-03-02T13:29:27.792Z,17.85
2023-03-02T13:31:55.369Z,17.48
2023-03-02T13:34:28.259Z,28.33
2023-03-02T13:36:55.660Z,25.85
2023-03-02T13:39:32.052Z,19.95
2023-03-02T13:42:01.081Z,24.25
2023-03-02T13:44:31.506Z,27.52
2023-03-02T13:46:59.132Z,20.27
2023-03-02T13:49:35.377Z,23.98
2023-03-02T13:52:05.907Z,20.92
2023-03-02T13:54:37.394Z,20.10
2023-03-02T13:57:06.426Z,23.40
2023-03-02T13:59:36.599Z,33.10
2023-03-02T14:02:11.363Z,23.15
2023-03-02T14:04:38.683Z,28.98
2023-03-02T14:07:05.658Z,29.23
2023-03-02T14:09:32.844Z,33.60
2023-03-02T14:11:59.730Z,29.33
2023-03-02T14:14:29.235Z,29.63
2023-03-02T14:16:56.741Z,24.85
2023-03-02T14:19:23.960Z,26.48
2023-03-02T14:21:50.939Z,34.70
2023-03-02T14:24:18.153Z,35.92
2023-03-02T14:26:48.004Z,187.15
2023-03-02T14:29:30.296Z,165.73
2023-03-02T14:32:06.778Z,58.97
2023-03-02T14:34:37.266Z,35.63
2023-03-02T14:37:07.786Z,27.55
2023-03-02T14:39:54.325Z,29.20
2023-03-02T14:42:23.019Z,36.83
2023-03-02T14:44:51.564Z,26.45
2023-03-02T14:47:19.746Z,29.80
2023-03-02T14:49:47.171Z,29.70
2023-03-02T14:52:35.880Z,28.63
2023-03-02T14:55:06.939Z,35.85
2023-03-02T14:57:36.803Z,30.15
2023-03-02T15:00:05.592Z,55.92
2023-03-02T15:02:32.695Z,40.40
2023-03-02T15:04:59.970Z,46.53
2023-03-02T15:07:28.274Z,42.50
2023-03-02T15:09:57.197Z,60.70
2023-03-02T15:12:24.838Z,51.40
2023-03-02T15:14:52.034Z,44.67
2023-03-02T15:17:18.969Z,53.13
2023-03-02T15:19:46.336Z,69.65
2023-03-02T15:22:13.586Z,50.72
2023-03-02T15:24:40.952Z,40.45
2023-03-02T15:27:08.259Z,48.25
2023-03-02T15:29:35.628Z,44.22
2023-03-02T15:32:02.678Z,55.10
2023-03-02T15:34:29.864Z,85.32
2023-03-02T15:36:56.748Z,58.15
2023-03-02T15:39:23.941Z,61.20
2023-03-02T15:41:50.886Z,112.37
2023-03-02T15:44:23.017Z,79.83
2023-03-02T15:46:52.733Z,53.77
2023-03-02T15:49:24.881Z,52.13
2023-03-02T15:51:52.258Z,91.53
2023-03-02T15:54:19.599Z,65.37
2023-03-02T15:56:51.943Z,68.27
2023-03-02T15:59:20.624Z,68.97
2023-03-02T16:01:47.577Z,73.87
2023-03-02T16:04:15.015Z,80.40
2023-03-02T16:06:42.150Z,81.73
2023-03-02T16:09:09.803Z,78.83
2023-03-02T16:11:37.208Z,82.87
2023-03-02T16:14:05.070Z,84.87
2023-03-02T16:16:32.118Z,100.83
2023-03-02T16:18:59.630Z,201.27
2023-03-02T16:21:28.716Z,238.90
2023-03-02T16:24:03.279Z,239.53
2023-03-02T16:26:32.527Z,291.23
2023-03-02T16:29:00.332Z,434.67
2023-03-02T16:31:28.494Z,737.10
2023-03-02T16:33:57.683Z,584.78
2023-03-02T16:36:25.853Z,786.78
2023-03-02T16:38:53.042Z,570.97
2023-03-02T16:41:22.348Z,488.73
2023-03-02T16:43:52.126Z,391.43
2023-03-02T16:46:20.198Z,337.10
2023-03-02T16:48:49.621Z,369.38
2023-03-02T16:53:44.167Z,287.93
2023-03-02T16:56:11.829Z,312.60
2023-03-02T16:58:41.576Z,359.30
2023-03-02T17:01:15.596Z,395.23
2023-03-02T17:03:43.743Z,388.97
2023-03-02T17:06:13.276Z,383.90
2023-03-02T17:08:41.036Z,332.30
2023-03-02T17:11:08.011Z,291.20
2023-03-02T17:13:35.500Z,269.07
2023-03-02T17:16:02.949Z,282.37
2023-03-02T17:18:30.871Z,268.73
2023-03-02T17:20:59.466Z,252.37
2023-03-02T17:23:27.517Z,235.00
2023-03-02T17:25:55.690Z,222.50
2023-03-02T17:28:23.783Z,218.15
2023-03-02T17:30:50.961Z,224.63
2023-03-02T17:33:18.456Z,230.70
2023-03-02T17:35:46.379Z,220.00
2023-03-02T17:38:15.133Z,243.73
2023-03-02T17:40:42.913Z,186.95
2023-03-02T17:43:12.462Z,248.57
2023-03-02T17:45:39.939Z,257.37
2023-03-02T17:48:07.396Z,261.90
2023-03-02T17:50:34.705Z,207.67
2023-03-02T17:53:03.093Z,151.47
2023-03-02T17:55:30.412Z,267.05
2023-03-02T17:57:57.951Z,315.83
2023-03-02T18:00:25.069Z,340.87
2023-03-02T18:02:53.536Z,343.67
2023-03-02T18:05:21.935Z,358.05
2023-03-02T18:07:51.695Z,447.38
2023-03-02T18:10:18.703Z,420.10
2023-03-02T18:12:48.755Z,429.53
2023-03-02T18:15:15.777Z,390.93
2023-03-02T18:17:44.246Z,392.15
2023-03-02T18:20:12.612Z,378.03
2023-03-02T18:22:39.840Z,371.95
2023-03-02T18:25:07.299Z,357.07
2023-03-02T18:27:34.805Z,350.03
2023-03-02T18:30:01.815Z,344.57
2023-03-02T18:32:29.014Z,325.97
2023-03-02T18:34:55.925Z,341.27
2023-03-02T18:37:23.168Z,324.97
2023-03-02T18:39:50.207Z,335.17
2023-03-02T18:42:17.390Z,354.47
2023-03-02T18:44:44.376Z,348.97
2023-03-02T18:47:16.815Z,370.30
2023-03-02T18:49:44.610Z,400.33
2023-03-02T18:52:12.169Z,365.48
2023-03-02T18:54:39.721Z,399.77
2023-03-02T18:57:08.969Z,439.57
2023-03-02T18:59:36.806Z,362.75
2023-03-02T19:02:08.282Z,368.90
2023-03-02T19:04:35.269Z,334.27
2023-03-02T19:07:03.061Z,371.90
2023-03-02T19:09:30.456Z,356.00
2023-03-02T19:11:57.721Z,381.67
2023-03-02T19:14:24.674Z,382.13
2023-03-02T19:16:52.023Z,364.03
2023-03-02T19:19:18.959Z,356.83
2023-03-02T19:21:46.240Z,350.00
2023-03-02T19:24:13.270Z,373.30
2023-03-02T19:26:40.628Z,410.67
2023-03-02T19:29:07.605Z,482.70
2023-03-02T19:31:38.398Z,482.70
2023-03-02T19:34:05.600Z,399.97
2023-03-02T19:36:32.849Z,484.37
2023-03-02T19:38:59.880Z,467.60
2023-03-02T19:41:27.073Z,414.23
2023-03-02T19:43:53.965Z,366.33
2023-03-02T19:46:21.159Z,425.13
2023-03-02T19:48:48.093Z,421.17
2023-03-02T19:51:16.842Z,480.10
2023-03-02T19:53:45.148Z,445.45
2023-03-02T19:56:14.779Z,433.92
2023-03-02T19:58:53.700Z,440.33
2023-03-02T20:01:22.197Z,436.17
2023-03-02T20:03:51.726Z,446.35
2023-03-02T20:06:20.451Z,431.27
2023-03-02T20:08:48.171Z,376.58
2023-03-02T20:11:16.637Z,359.65
2023-03-02T20:13:43.924Z,344.20
2023-03-02T20:16:13.883Z,360.73
2023-03-02T20:18:42.280Z,416.50
2023-03-02T20:21:09.540Z,381.25
2023-03-02T20:23:36.494Z,360.43
2023-03-02T20:26:04.700Z,305.30
2023-03-02T20:28:33.179Z,350.13
2023-03-02T20:31:06.268Z,294.48
2023-03-02T20:33:46.593Z,326.40
2023-03-02T20:36:16.667Z,287.33
2023-03-02T20:38:49.898Z,292.23
2023-03-02T20:41:17.713Z,319.27
2023-03-02T20:43:44.961Z,362.03
2023-03-02T20:46:26.328Z,392.07
2023-03-02T20:48:54.361Z,409.20
2023-03-02T20:51:22.389Z,414.27
2023-03-02T20:53:49.777Z,378.23
2023-03-02T20:56:20.980Z,375.73
2023-03-02T20:58:48.515Z,356.50
2023-03-02T21:01:18.067Z,315.67
2023-03-02T21:03:45.151Z,333.47
2023-03-02T21:06:13.861Z,343.13
2023-03-02T21:08:41.193Z,313.67
2023-03-02T21:11:11.482Z,348.40
2023-03-02T21:13:39.333Z,353.07
2023-03-02T21:16:09.579Z,351.33
2023-03-02T21:18:36.564Z,345.27
2023-03-02T21:21:04.340Z,316.70
2023-03-02T21:23:31.278Z,313.87
2023-03-02T21:25:58.620Z,290.63
2023-03-02T21:28:25.623Z,283.30
2023-03-02T21:30:52.854Z,289.83
2023-03-02T21:33:19.835Z,300.07
2023-03-02T21:35:47.094Z,325.53
2023-03-02T21:38:14.809Z,323.93
2023-03-02T21:40:45.957Z,243.02
2023-03-02T21:43:14.900Z,279.67
2023-03-02T21:45:42.577Z,273.43
2023-03-02T21:48:12.363Z,255.33
2023-03-02T21:50:40.432Z,245.73
2023-03-02T21:53:07.375Z,253.53
2023-03-02T21:55:35.482Z,247.27
2023-03-02T21:58:02.700Z,249.63
2023-03-02T22:00:35.769Z,251.27
2023-03-02T22:03:03.333Z,279.33
2023-03-02T22:05:31.763Z,270.93
2023-03-02T22:07:59.098Z,271.13
2023-03-02T22:10:44.769Z,281.23
2023-03-02T22:13:19.931Z,273.73
2023-03-02T22:15:48.100Z,272.20
2023-03-02T22:18:20.121Z,270.03
2023-03-02T22:20:50.164Z,264.73
2023-03-02T22:23:23.067Z,251.17
2023-03-02T22:25:53.887Z,255.87
2023-03-02T22:28:23.568Z,243.63
2023-03-02T22:30:52.478Z,264.43
2023-03-02T22:33:22.121Z,268.85
2023-03-02T22:35:51.714Z,291.27
2023-03-02T22:38:27.377Z,299.33
2023-03-02T22:40:55.678Z,292.90
2023-03-02T22:43:29.255Z,307.65
2023-03-02T22:46:17.559Z,286.63
2023-03-02T22:48:52.121Z,277.85
2023-03-02T22:51:28.178Z,304.80
2023-03-02T22:53:59.864Z,306.83
2023-03-02T22:56:31.439Z,313.90
2023-03-02T22:59:19.345Z,294.37
2023-03-02T23:01:46.682Z,292.45
2023-03-02T23:04:36.126Z,291.57
2023-03-02T23:07:14.322Z,284.40
2023-03-02T23:09:41.148Z,272.33
2023-03-02T23:12:24.312Z,265.77
2023-03-02T23:14:56.942Z,227.47
2023-03-02T23:17:39.093Z,237.07
2023-03-02T23:20:10.145Z,256.23
2023-03-02T23:22:39.139Z,256.27
2023-03-02T23:25:08.008Z,251.25
2023-03-02T23:27:35.472Z,253.63
2023-03-02T23:30:02.944Z,278.07
2023-03-02T23:32:30.328Z,264.70
2023-03-02T23:34:57.383Z,253.67
2023-03-02T23:37:24.661Z,230.27
2023-03-02T23:39:52.240Z,236.00
2023-03-02T23:42:19.389Z,226.00
2023-03-02T23:44:46.233Z,220.73
2023-03-02T23:47:13.424Z,214.40
2023-03-02T23:49:40.364Z,217.10
2023-03-02T23:52:07.588Z,216.90
2023-03-02T23:54:34.494Z,209.60
2023-03-02T23:57:01.736Z,205.20
2023-03-02T23:59:28.665Z,203.70
